sensor_id;sensor_type;location;lat;lon;timestamp;temperature;humidity
16907;DHT22;8570;52.380;4.654;2022-09-09T00:01:07;16.90;99.90
16907;DHT22;8570;52.380;4.654;2022-09-09T00:06:21;16.80;99.90
16907;DHT22;8570;52.380;4.654;2022-09-09T00:11:28;16.80;99.90
16907;DHT22;8570;52.380;4.654;2022-09-09T00:16:36;16.80;99.90
16907;DHT22;8570;52.380;4.654;2022-09-09T00:21:49;16.80;99.90
16907;DHT22;8570;52.380;4.654;2022-09-09T00:27:00;16.80;99.90
16907;DHT22;8570;52.380;4.654;2022-09-09T00:32:12;16.70;99.90
16907;DHT22;8570;52.380;4.654;2022-09-09T00:37:18;16.70;99.90
16907;DHT22;8570;52.380;4.654;2022-09-09T00:42:25;16.60;99.90
16907;DHT22;8570;52.380;4.654;2022-09-09T00:47:38;16.60;99.90
16907;DHT22;8570;52.380;4.654;2022-09-09T00:52:48;16.50;99.90
16907;DHT22;8570;52.380;4.654;2022-09-09T00:57:53;16.40;99.90
16907;DHT22;8570;52.380;4.654;2022-09-09T01:03:35;16.40;99.90
16907;DHT22;8570;52.380;4.654;2022-09-09T01:09:04;16.30;99.90
16907;DHT22;8570;52.380;4.654;2022-09-09T01:14:24;16.30;99.90
16907;DHT22;8570;52.380;4.654;2022-09-09T01:19:47;16.30;99.90
16907;DHT22;8570;52.380;4.654;2022-09-09T01:25:13;16.30;99.90
16907;DHT22;8570;52.380;4.654;2022-09-09T01:30:22;16.30;99.90
16907;DHT22;8570;52.380;4.654;2022-09-09T01:35:32;16.30;99.90
16907;DHT22;8570;52.380;4.654;2022-09-09T01:40:48;16.30;99.90
16907;DHT22;8570;52.380;4.654;2022-09-09T01:46:00;16.30;99.90
16907;DHT22;8570;52.380;4.654;2022-09-09T01:51:08;16.30;99.90
16907;DHT22;8570;52.380;4.654;2022-09-09T01:56:25;16.20;99.90
16907;DHT22;8570;52.380;4.654;2022-09-09T02:01:42;16.20;99.90
16907;DHT22;8570;52.380;4.654;2022-09-09T02:06:52;16.10;99.90
16907;DHT22;8570;52.380;4.654;2022-09-09T02:12:01;16.10;99.90
16907;DHT22;8570;52.380;4.654;2022-09-09T02:17:16;16.10;99.90
16907;DHT22;8570;52.380;4.654;2022-09-09T02:22:24;16.10;99.90
16907;DHT22;8570;52.380;4.654;2022-09-09T02:27:31;16.10;99.90
16907;DHT22;8570;52.380;4.654;2022-09-09T02:32:35;16.10;99.90
16907;DHT22;8570;52.380;4.654;2022-09-09T02:37:41;16.10;99.90
16907;DHT22;8570;52.380;4.654;2022-09-09T02:42:48;16.20;99.90
16907;DHT22;8570;52.380;4.654;2022-09-09T02:47:58;16.20;99.90
16907;DHT22;8570;52.380;4.654;2022-09-09T02:53:07;16.30;99.90
16907;DHT22;8570;52.380;4.654;2022-09-09T02:58:14;16.30;99.90
16907;DHT22;8570;52.380;4.654;2022-09-09T03:03:21;16.30;99.90
16907;DHT22;8570;52.380;4.654;2022-09-09T03:08:25;16.20;99.90
16907;DHT22;8570;52.380;4.654;2022-09-09T03:13:30;16.20;99.90
16907;DHT22;8570;52.380;4.654;2022-09-09T03:18:34;16.20;99.90
16907;DHT22;8570;52.380;4.654;2022-09-09T03:23:38;16.10;99.90
16907;DHT22;8570;52.380;4.654;2022-09-09T03:28:43;16.10;99.90
16907;DHT22;8570;52.380;4.654;2022-09-09T03:33:49;16.00;99.90
16907;DHT22;8570;52.380;4.654;2022-09-09T03:38:54;16.00;99.90
16907;DHT22;8570;52.380;4.654;2022-09-09T03:43:56;16.00;99.90
16907;DHT22;8570;52.380;4.654;2022-09-09T03:48:59;15.90;99.90
16907;DHT22;8570;52.380;4.654;2022-09-09T03:54:03;15.90;99.90
16907;DHT22;8570;52.380;4.654;2022-09-09T03:59:10;15.80;99.90
16907;DHT22;8570;52.380;4.654;2022-09-09T04:04:14;15.80;99.90
16907;DHT22;8570;52.380;4.654;2022-09-09T04:09:18;15.80;99.90
16907;DHT22;8570;52.380;4.654;2022-09-09T04:14:21;15.80;99.90
16907;DHT22;8570;52.380;4.654;2022-09-09T04:19:24;15.80;99.90
16907;DHT22;8570;52.380;4.654;2022-09-09T04:24:27;15.80;99.90
16907;DHT22;8570;52.380;4.654;2022-09-09T04:29:29;15.80;99.90
16907;DHT22;8570;52.380;4.654;2022-09-09T04:34:36;15.70;99.90
16907;DHT22;8570;52.380;4.654;2022-09-09T04:39:37;15.60;99.90
16907;DHT22;8570;52.380;4.654;2022-09-09T04:44:39;15.60;99.90
16907;DHT22;8570;52.380;4.654;2022-09-09T04:49:49;15.50;99.90
16907;DHT22;8570;52.380;4.654;2022-09-09T04:54:53;15.40;99.90
16907;DHT22;8570;52.380;4.654;2022-09-09T04:59:55;15.30;99.90
16907;DHT22;8570;52.380;4.654;2022-09-09T05:05:01;15.30;99.90
16907;DHT22;8570;52.380;4.654;2022-09-09T05:10:04;15.20;99.90
16907;DHT22;8570;52.380;4.654;2022-09-09T05:15:07;15.20;99.90
16907;DHT22;8570;52.380;4.654;2022-09-09T05:20:12;15.10;99.90
16907;DHT22;8570;52.380;4.654;2022-09-09T05:25:16;15.10;99.90
16907;DHT22;8570;52.380;4.654;2022-09-09T05:30:21;15.10;99.90
16907;DHT22;8570;52.380;4.654;2022-09-09T05:35:29;15.10;99.90
16907;DHT22;8570;52.380;4.654;2022-09-09T05:40:34;15.10;99.90
16907;DHT22;8570;52.380;4.654;2022-09-09T05:45:38;15.10;99.90
16907;DHT22;8570;52.380;4.654;2022-09-09T05:50:53;15.10;99.90
16907;DHT22;8570;52.380;4.654;2022-09-09T05:56:00;15.20;99.90
16907;DHT22;8570;52.380;4.654;2022-09-09T06:01:04;15.20;99.90
16907;DHT22;8570;52.380;4.654;2022-09-09T06:06:09;15.30;99.90
16907;DHT22;8570;52.380;4.654;2022-09-09T06:11:14;15.30;99.90
16907;DHT22;8570;52.380;4.654;2022-09-09T06:16:20;15.30;99.90
16907;DHT22;8570;52.380;4.654;2022-09-09T06:21:26;15.30;99.90
16907;DHT22;8570;52.380;4.654;2022-09-09T06:26:32;15.40;99.90
16907;DHT22;8570;52.380;4.654;2022-09-09T06:31:36;15.40;99.90
16907;DHT22;8570;52.380;4.654;2022-09-09T06:36:40;15.50;99.90
16907;DHT22;8570;52.380;4.654;2022-09-09T06:41:42;15.50;99.90
16907;DHT22;8570;52.380;4.654;2022-09-09T06:46:44;15.60;99.90
16907;DHT22;8570;52.380;4.654;2022-09-09T06:51:49;15.60;99.90
16907;DHT22;8570;52.380;4.654;2022-09-09T06:56:54;15.60;99.90
16907;DHT22;8570;52.380;4.654;2022-09-09T07:01:56;15.70;99.90
16907;DHT22;8570;52.380;4.654;2022-09-09T07:06:59;15.80;99.90
16907;DHT22;8570;52.380;4.654;2022-09-09T07:12:01;15.80;99.90
16907;DHT22;8570;52.380;4.654;2022-09-09T07:17:06;15.80;99.90
16907;DHT22;8570;52.380;4.654;2022-09-09T07:22:09;15.90;99.90
16907;DHT22;8570;52.380;4.654;2022-09-09T07:27:11;15.90;99.90
16907;DHT22;8570;52.380;4.654;2022-09-09T07:32:13;16.00;99.90
16907;DHT22;8570;52.380;4.654;2022-09-09T07:37:17;16.00;99.90
16907;DHT22;8570;52.380;4.654;2022-09-09T07:42:19;16.10;99.90
16907;DHT22;8570;52.380;4.654;2022-09-09T07:47:21;16.20;99.90
16907;DHT22;8570;52.380;4.654;2022-09-09T07:52:26;16.20;99.90
16907;DHT22;8570;52.380;4.654;2022-09-09T07:57:29;16.30;99.90
16907;DHT22;8570;52.380;4.654;2022-09-09T08:02:31;16.30;99.90
16907;DHT22;8570;52.380;4.654;2022-09-09T08:07:34;16.40;99.90
16907;DHT22;8570;52.380;4.654;2022-09-09T08:12:36;16.40;99.90
16907;DHT22;8570;52.380;4.654;2022-09-09T08:17:38;16.50;99.90
16907;DHT22;8570;52.380;4.654;2022-09-09T08:22:41;16.50;99.90
16907;DHT22;8570;52.380;4.654;2022-09-09T08:27:44;16.60;99.90
16907;DHT22;8570;52.380;4.654;2022-09-09T08:32:45;16.70;99.90
16907;DHT22;8570;52.380;4.654;2022-09-09T08:37:53;16.70;99.90
16907;DHT22;8570;52.380;4.654;2022-09-09T08:42:56;16.80;99.90
16907;DHT22;8570;52.380;4.654;2022-09-09T08:48:13;16.90;99.90
16907;DHT22;8570;52.380;4.654;2022-09-09T08:53:21;17.00;99.90
16907;DHT22;8570;52.380;4.654;2022-09-09T08:58:26;17.20;99.90
16907;DHT22;8570;52.380;4.654;2022-09-09T09:03:35;17.30;99.90
16907;DHT22;8570;52.380;4.654;2022-09-09T09:08:46;17.40;99.90
16907;DHT22;8570;52.380;4.654;2022-09-09T09:13:54;17.40;99.90
16907;DHT22;8570;52.380;4.654;2022-09-09T09:18:56;17.40;99.90
16907;DHT22;8570;52.380;4.654;2022-09-09T09:24:00;17.50;99.90
16907;DHT22;8570;52.380;4.654;2022-09-09T09:29:10;17.50;99.90
16907;DHT22;8570;52.380;4.654;2022-09-09T09:34:13;17.50;99.90
16907;DHT22;8570;52.380;4.654;2022-09-09T09:39:24;17.40;99.90
16907;DHT22;8570;52.380;4.654;2022-09-09T09:44:28;17.40;99.90
16907;DHT22;8570;52.380;4.654;2022-09-09T09:49:30;17.40;99.90
16907;DHT22;8570;52.380;4.654;2022-09-09T09:54:38;17.40;99.90
16907;DHT22;8570;52.380;4.654;2022-09-09T09:59:41;17.50;99.90
16907;DHT22;8570;52.380;4.654;2022-09-09T10:04:43;17.50;99.90
16907;DHT22;8570;52.380;4.654;2022-09-09T10:09:54;17.70;99.90
16907;DHT22;8570;52.380;4.654;2022-09-09T10:15:01;17.90;99.90
16907;DHT22;8570;52.380;4.654;2022-09-09T10:20:23;18.10;99.90
16907;DHT22;8570;52.380;4.654;2022-09-09T10:25:38;18.30;99.90
16907;DHT22;8570;52.380;4.654;2022-09-09T10:30:54;18.50;99.90
16907;DHT22;8570;52.380;4.654;2022-09-09T10:36:07;18.50;99.90
16907;DHT22;8570;52.380;4.654;2022-09-09T10:41:17;18.50;99.90
16907;DHT22;8570;52.380;4.654;2022-09-09T10:46:25;18.60;99.90
16907;DHT22;8570;52.380;4.654;2022-09-09T10:51:38;18.70;99.90
16907;DHT22;8570;52.380;4.654;2022-09-09T10:56:49;18.70;99.90
16907;DHT22;8570;52.380;4.654;2022-09-09T11:01:59;18.80;99.90
16907;DHT22;8570;52.380;4.654;2022-09-09T11:07:07;18.80;99.90
16907;DHT22;8570;52.380;4.654;2022-09-09T11:12:15;18.70;99.90
16907;DHT22;8570;52.380;4.654;2022-09-09T11:17:33;18.70;99.90
16907;DHT22;8570;52.380;4.654;2022-09-09T11:22:39;18.60;99.90
16907;DHT22;8570;52.380;4.654;2022-09-09T11:27:56;18.50;99.90
16907;DHT22;8570;52.380;4.654;2022-09-09T11:33:37;18.30;99.90
16907;DHT22;8570;52.380;4.654;2022-09-09T11:38:45;18.20;99.90
16907;DHT22;8570;52.380;4.654;2022-09-09T11:43:50;18.20;99.90
16907;DHT22;8570;52.380;4.654;2022-09-09T11:48:59;18.20;99.90
16907;DHT22;8570;52.380;4.654;2022-09-09T11:54:24;18.30;99.90
16907;DHT22;8570;52.380;4.654;2022-09-09T11:59:27;18.40;99.90
16907;DHT22;8570;52.380;4.654;2022-09-09T12:04:35;18.40;99.90
16907;DHT22;8570;52.380;4.654;2022-09-09T12:09:45;18.60;99.90
16907;DHT22;8570;52.380;4.654;2022-09-09T12:14:59;18.80;99.90
16907;DHT22;8570;52.380;4.654;2022-09-09T12:20:04;18.80;99.90
16907;DHT22;8570;52.380;4.654;2022-09-09T12:25:18;18.90;99.90
16907;DHT22;8570;52.380;4.654;2022-09-09T12:30:28;19.10;99.90
16907;DHT22;8570;52.380;4.654;2022-09-09T12:35:32;19.20;99.90
16907;DHT22;8570;52.380;4.654;2022-09-09T12:40:34;19.10;99.90
16907;DHT22;8570;52.380;4.654;2022-09-09T12:45:40;19.00;99.90
16907;DHT22;8570;52.380;4.654;2022-09-09T12:50:45;18.80;99.90
16907;DHT22;8570;52.380;4.654;2022-09-09T12:55:50;18.70;99.90
16907;DHT22;8570;52.380;4.654;2022-09-09T13:00:55;18.70;99.90
16907;DHT22;8570;52.380;4.654;2022-09-09T13:05:58;18.70;99.90
16907;DHT22;8570;52.380;4.654;2022-09-09T13:11:06;18.70;99.90
16907;DHT22;8570;52.380;4.654;2022-09-09T13:16:20;18.70;99.90
16907;DHT22;8570;52.380;4.654;2022-09-09T13:21:32;18.60;99.90
16907;DHT22;8570;52.380;4.654;2022-09-09T13:26:35;18.60;99.90
16907;DHT22;8570;52.380;4.654;2022-09-09T13:31:41;18.60;99.90
16907;DHT22;8570;52.380;4.654;2022-09-09T13:36:48;18.50;99.90
16907;DHT22;8570;52.380;4.654;2022-09-09T13:41:50;18.50;99.90
16907;DHT22;8570;52.380;4.654;2022-09-09T13:47:05;18.50;99.90
16907;DHT22;8570;52.380;4.654;2022-09-09T13:52:12;18.40;99.90
16907;DHT22;8570;52.380;4.654;2022-09-09T13:57:17;18.40;99.90
16907;DHT22;8570;52.380;4.654;2022-09-09T14:02:20;18.40;99.90
16907;DHT22;8570;52.380;4.654;2022-09-09T14:07:23;18.30;99.90
16907;DHT22;8570;52.380;4.654;2022-09-09T14:12:25;18.20;99.90
16907;DHT22;8570;52.380;4.654;2022-09-09T14:17:29;18.20;99.90
16907;DHT22;8570;52.380;4.654;2022-09-09T14:22:31;18.20;99.90
16907;DHT22;8570;52.380;4.654;2022-09-09T14:27:33;18.10;99.90
16907;DHT22;8570;52.380;4.654;2022-09-09T14:32:41;18.10;99.90
16907;DHT22;8570;52.380;4.654;2022-09-09T14:37:43;18.00;99.90
16907;DHT22;8570;52.380;4.654;2022-09-09T14:42:45;17.80;99.90
16907;DHT22;8570;52.380;4.654;2022-09-09T14:47:49;17.80;99.90
16907;DHT22;8570;52.380;4.654;2022-09-09T14:52:51;17.70;99.90
16907;DHT22;8570;52.380;4.654;2022-09-09T14:57:55;17.70;99.90
16907;DHT22;8570;52.380;4.654;2022-09-09T15:02:58;17.60;99.90
16907;DHT22;8570;52.380;4.654;2022-09-09T15:08:02;17.50;99.90
16907;DHT22;8570;52.380;4.654;2022-09-09T15:13:04;17.40;99.90
16907;DHT22;8570;52.380;4.654;2022-09-09T15:18:07;17.30;99.90
16907;DHT22;8570;52.380;4.654;2022-09-09T15:23:09;17.20;99.90
16907;DHT22;8570;52.380;4.654;2022-09-09T15:28:11;17.10;99.90
16907;DHT22;8570;52.380;4.654;2022-09-09T15:33:14;17.10;99.90
16907;DHT22;8570;52.380;4.654;2022-09-09T15:38:16;17.10;99.90
16907;DHT22;8570;52.380;4.654;2022-09-09T15:43:19;17.00;99.90
16907;DHT22;8570;52.380;4.654;2022-09-09T15:48:30;17.00;99.90
16907;DHT22;8570;52.380;4.654;2022-09-09T15:53:33;17.00;99.90
16907;DHT22;8570;52.380;4.654;2022-09-09T15:58:35;17.00;99.90
16907;DHT22;8570;52.380;4.654;2022-09-09T16:03:40;17.00;99.90
16907;DHT22;8570;52.380;4.654;2022-09-09T16:08:47;17.00;99.90
16907;DHT22;8570;52.380;4.654;2022-09-09T16:13:51;17.00;99.90
16907;DHT22;8570;52.380;4.654;2022-09-09T16:18:56;17.00;99.90
16907;DHT22;8570;52.380;4.654;2022-09-09T16:24:00;17.10;99.90
16907;DHT22;8570;52.380;4.654;2022-09-09T16:29:03;17.20;99.90
16907;DHT22;8570;52.380;4.654;2022-09-09T16:34:07;17.30;99.90
16907;DHT22;8570;52.380;4.654;2022-09-09T16:39:10;17.30;99.90
16907;DHT22;8570;52.380;4.654;2022-09-09T16:44:13;17.40;99.90
16907;DHT22;8570;52.380;4.654;2022-09-09T16:49:16;17.40;99.90
16907;DHT22;8570;52.380;4.654;2022-09-09T16:54:18;17.50;99.90
16907;DHT22;8570;52.380;4.654;2022-09-09T16:59:21;17.60;99.90
16907;DHT22;8570;52.380;4.654;2022-09-09T17:04:27;17.70;99.90
16907;DHT22;8570;52.380;4.654;2022-09-09T17:09:29;17.80;99.90
16907;DHT22;8570;52.380;4.654;2022-09-09T17:14:31;17.90;99.90
16907;DHT22;8570;52.380;4.654;2022-09-09T17:19:35;17.90;99.90
16907;DHT22;8570;52.380;4.654;2022-09-09T17:24:36;18.00;99.90
16907;DHT22;8570;52.380;4.654;2022-09-09T17:29:40;18.00;99.90
16907;DHT22;8570;52.380;4.654;2022-09-09T17:34:44;18.00;99.90
16907;DHT22;8570;52.380;4.654;2022-09-09T17:39:46;18.00;99.90
16907;DHT22;8570;52.380;4.654;2022-09-09T17:44:48;18.00;99.90
16907;DHT22;8570;52.380;4.654;2022-09-09T17:49:51;18.00;99.90
16907;DHT22;8570;52.380;4.654;2022-09-09T17:54:53;18.00;99.90
16907;DHT22;8570;52.380;4.654;2022-09-09T17:59:57;18.00;99.90
16907;DHT22;8570;52.380;4.654;2022-09-09T18:05:00;17.90;99.90
16907;DHT22;8570;52.380;4.654;2022-09-09T18:10:03;17.80;99.90
16907;DHT22;8570;52.380;4.654;2022-09-09T18:15:05;17.80;99.90
16907;DHT22;8570;52.380;4.654;2022-09-09T18:20:09;17.80;99.90
16907;DHT22;8570;52.380;4.654;2022-09-09T18:25:11;17.80;99.90
16907;DHT22;8570;52.380;4.654;2022-09-09T18:30:13;17.80;99.90
16907;DHT22;8570;52.380;4.654;2022-09-09T18:35:16;18.10;99.90
16907;DHT22;8570;52.380;4.654;2022-09-09T18:40:18;18.20;99.90
16907;DHT22;8570;52.380;4.654;2022-09-09T18:45:20;18.20;99.90
16907;DHT22;8570;52.380;4.654;2022-09-09T18:50:23;18.00;99.90
16907;DHT22;8570;52.380;4.654;2022-09-09T18:55:25;17.80;99.90
16907;DHT22;8570;52.380;4.654;2022-09-09T19:00:28;17.70;99.90
16907;DHT22;8570;52.380;4.654;2022-09-09T19:05:31;17.60;99.90
16907;DHT22;8570;52.380;4.654;2022-09-09T19:10:35;17.50;99.90
16907;DHT22;8570;52.380;4.654;2022-09-09T19:15:37;17.40;99.90
16907;DHT22;8570;52.380;4.654;2022-09-09T19:20:40;17.30;99.90
16907;DHT22;8570;52.380;4.654;2022-09-09T19:25:42;17.30;99.90
16907;DHT22;8570;52.380;4.654;2022-09-09T19:30:44;17.20;99.90
16907;DHT22;8570;52.380;4.654;2022-09-09T19:35:57;17.20;99.90
16907;DHT22;8570;52.380;4.654;2022-09-09T19:41:02;17.00;99.90
16907;DHT22;8570;52.380;4.654;2022-09-09T19:46:08;17.00;99.90
16907;DHT22;8570;52.380;4.654;2022-09-09T19:51:14;17.00;99.90
16907;DHT22;8570;52.380;4.654;2022-09-09T19:56:16;16.90;99.90
16907;DHT22;8570;52.380;4.654;2022-09-09T20:01:20;16.90;99.90
16907;DHT22;8570;52.380;4.654;2022-09-09T20:06:25;16.90;99.90
16907;DHT22;8570;52.380;4.654;2022-09-09T20:11:27;16.90;99.90
16907;DHT22;8570;52.380;4.654;2022-09-09T20:16:30;16.90;99.90
16907;DHT22;8570;52.380;4.654;2022-09-09T20:21:34;16.90;99.90
16907;DHT22;8570;52.380;4.654;2022-09-09T20:26:38;16.90;99.90
16907;DHT22;8570;52.380;4.654;2022-09-09T20:31:40;16.90;99.90
16907;DHT22;8570;52.380;4.654;2022-09-09T20:36:44;16.90;99.90
16907;DHT22;8570;52.380;4.654;2022-09-09T20:41:47;16.90;99.90
16907;DHT22;8570;52.380;4.654;2022-09-09T20:46:51;16.80;99.90
16907;DHT22;8570;52.380;4.654;2022-09-09T20:51:56;16.80;99.90
16907;DHT22;8570;52.380;4.654;2022-09-09T20:56:58;16.80;99.90
16907;DHT22;8570;52.380;4.654;2022-09-09T21:02:00;16.70;99.90
16907;DHT22;8570;52.380;4.654;2022-09-09T21:07:04;16.70;99.90
16907;DHT22;8570;52.380;4.654;2022-09-09T21:12:07;16.70;99.90
16907;DHT22;8570;52.380;4.654;2022-09-09T21:17:10;16.60;99.90
16907;DHT22;8570;52.380;4.654;2022-09-09T21:22:14;16.60;99.90
16907;DHT22;8570;52.380;4.654;2022-09-09T21:27:16;16.60;99.90
16907;DHT22;8570;52.380;4.654;2022-09-09T21:32:17;16.50;99.90
16907;DHT22;8570;52.380;4.654;2022-09-09T21:37:22;16.50;99.90
16907;DHT22;8570;52.380;4.654;2022-09-09T21:42:24;16.40;99.90
16907;DHT22;8570;52.380;4.654;2022-09-09T21:47:25;16.40;99.90
16907;DHT22;8570;52.380;4.654;2022-09-09T21:52:29;16.40;99.90
16907;DHT22;8570;52.380;4.654;2022-09-09T21:57:30;16.40;99.90
16907;DHT22;8570;52.380;4.654;2022-09-09T22:02:35;16.40;99.90
16907;DHT22;8570;52.380;4.654;2022-09-09T22:07:39;16.40;99.90
16907;DHT22;8570;52.380;4.654;2022-09-09T22:12:41;16.40;99.90
16907;DHT22;8570;52.380;4.654;2022-09-09T22:17:43;16.40;99.90
16907;DHT22;8570;52.380;4.654;2022-09-09T22:22:46;16.40;99.90
16907;DHT22;8570;52.380;4.654;2022-09-09T22:27:48;16.40;99.90
16907;DHT22;8570;52.380;4.654;2022-09-09T22:32:52;16.40;99.90
16907;DHT22;8570;52.380;4.654;2022-09-09T22:37:56;16.40;99.90
16907;DHT22;8570;52.380;4.654;2022-09-09T22:42:58;16.30;99.90
16907;DHT22;8570;52.380;4.654;2022-09-09T22:48:00;16.30;99.90
16907;DHT22;8570;52.380;4.654;2022-09-09T22:53:06;16.30;99.90
16907;DHT22;8570;52.380;4.654;2022-09-09T22:58:08;16.30;99.90
16907;DHT22;8570;52.380;4.654;2022-09-09T23:03:10;16.20;99.90
16907;DHT22;8570;52.380;4.654;2022-09-09T23:08:14;16.20;99.90
16907;DHT22;8570;52.380;4.654;2022-09-09T23:13:18;16.10;99.90
16907;DHT22;8570;52.380;4.654;2022-09-09T23:18:20;16.00;99.90
16907;DHT22;8570;52.380;4.654;2022-09-09T23:23:26;16.00;99.90
16907;DHT22;8570;52.380;4.654;2022-09-09T23:28:29;16.00;99.90
16907;DHT22;8570;52.380;4.654;2022-09-09T23:33:32;16.00;99.90
16907;DHT22;8570;52.380;4.654;2022-09-09T23:38:39;16.10;99.90
16907;DHT22;8570;52.380;4.654;2022-09-09T23:43:41;16.10;99.90
16907;DHT22;8570;52.380;4.654;2022-09-09T23:48:44;16.10;99.90
16907;DHT22;8570;52.380;4.654;2022-09-09T23:53:53;16.00;99.90
16907;DHT22;8570;52.380;4.654;2022-09-09T23:58:56;16.00;99.90
